1887 NOT_NAMED (1887252N16130)


IBTrACS version v04r00. Visit IBTrACS website for data access.
Please direct all questions to the IBTrACS Q and A forum

Storm track - Intensity - Wind Radii - Intensity Data - Source Data - All data

Summary Information

Storm ID 1887252N16130
Start Sep 8 16Z
Landfall Sep 11 16Z
End Sep 13 04Z
ATCF IDs
Track status Best track data.

Storm track plot

Map of storm track

Intensity plots

No Intensity information for this storm


Radial wind information

No radial wind information for this storm


Position and Intensity Table

BASIN ISO_TIME_________ NATURE LAT LON
degrees north degrees east
WP 1887-09-08 16:00:00 NR 15.50 129.70
WP 18:00:00 NR 15.83 129.14
WP 21:00:00 NR 16.31 128.32
WP 1887-09-09 00:00:00 NR 16.76 127.53
WP 03:00:00 NR 17.18 126.82
WP 04:00:00 NR 17.30 126.60
WP 06:00:00 NR 17.53 126.20
WP 09:00:00 NR 17.84 125.66
WP 12:00:00 NR 18.12 125.16
WP 15:00:00 NR 18.40 124.67
WP 16:00:00 NR 18.50 124.50
WP 18:00:00 NR 18.72 124.12
WP 21:00:00 NR 19.07 123.53
WP 1887-09-10 00:00:00 NR 19.40 122.94
WP 03:00:00 NR 19.71 122.38
WP 04:00:00 NR 19.80 122.20
WP 06:00:00 NR 19.96 121.87
WP 09:00:00 NR 20.16 121.40
WP 12:00:00 NR 20.34 120.96
WP 15:00:00 NR 20.53 120.54
WP 16:00:00 NR 20.60 120.40
WP 18:00:00 NR 20.75 120.17
WP 21:00:00 NR 20.98 119.83
WP 1887-09-11 00:00:00 NR 21.24 119.46
WP 03:00:00 NR 21.51 118.99
WP 04:00:00 NR 21.60 118.80
WP 06:00:00 NR 21.83 118.34
WP 09:00:00 NR 22.18 117.54
WP 12:00:00 NR 22.50 116.64
WP 15:00:00 NR 22.74 115.71
WP 16:00:00 NR 22.80 115.40
WP 18:00:00 NR 22.86 114.77
WP 21:00:00 NR 22.87 113.82
WP 1887-09-12 00:00:00 NR 22.79 112.92
WP 03:00:00 NR 22.65 112.13
WP 04:00:00 NR 22.60 111.90
WP 06:00:00 NR 22.51 111.52
WP 09:00:00 NR 22.33 111.06
WP 12:00:00 NR 22.12 110.71
WP 15:00:00 NR 21.88 110.40
WP 16:00:00 NR 21.80 110.30
WP 18:00:00 NR 21.63 110.09
WP 21:00:00 NR 21.36 109.78
WP 1887-09-13 00:00:00 NR 21.08 109.45
WP 03:00:00 NR 20.80 109.11
WP 04:00:00 NR 20.70 109.00

Source Information

Agency Information
USA
TOKYO
CMA
HKO
NEWDELHI
REUNION
BOM
NADI
WELLINGTON
DS824
TD9636 cons_worldwide_trop_cyclone_18710101-19891231-003:Line=460
TD9635
NEUMANN
MLC

All available IBTrACS Data

SEASON BASIN SUBBASIN ISO_TIME_________ NATURE LAT LON DIST2LAND LANDFALL IFLAG USA SSHS TD9636 LAT TD9636 LON TD9636 STAGE STORM SPEED STORM DIR
Year degrees north degrees east km km 1 degrees north degrees east kts degrees
1887 WP MM 1887-09-08 16:00:00 NR 15.50 129.70 585 548 __________O___ -1 15.50 129.70 4 19 301
1887 WP MM 18:00:00 NR 15.83 129.14 548 497 __________P___ -1 15.83 129.14 4 19 301
1887 WP MM 21:00:00 NR 16.31 128.32 497 464 __________P___ -1 16.31 128.32 4 18 301
1887 WP MM 1887-09-09 00:00:00 NR 16.76 127.53 464 443 __________P___ -1 16.76 127.53 4 17 301
1887 WP MM 03:00:00 NR 17.18 126.82 447 437 __________P___ -1 17.18 126.82 4 16 301
1887 WP MM 04:00:00 NR 17.30 126.60 437 396 __________O___ -1 17.30 126.60 4 14 301
1887 WP MM 06:00:00 NR 17.53 126.20 396 351 __________P___ -1 17.53 126.20 4 13 301
1887 WP MM 09:00:00 NR 17.84 125.66 351 307 __________P___ -1 17.84 125.66 4 12 301
1887 WP MM 12:00:00 NR 18.12 125.16 307 253 __________P___ -1 18.12 125.16 4 11 301
1887 WP MM 15:00:00 NR 18.40 124.67 253 232 __________P___ -1 18.40 124.67 4 11 301
1887 WP MM 16:00:00 NR 18.50 124.50 232 192 __________O___ -1 18.50 124.50 4 12 301
1887 WP MM 18:00:00 NR 18.72 124.12 192 148 __________P___ -1 18.72 124.12 4 13 302
1887 WP MM 21:00:00 NR 19.07 123.53 148 124 __________P___ -1 19.07 123.53 4 13 301
1887 WP MM 1887-09-10 00:00:00 NR 19.40 122.94 128 128 __________P___ -1 19.40 122.94 4 13 301
1887 WP MM 03:00:00 NR 19.71 122.38 145 145 __________P___ -1 19.71 122.38 4 12 300
1887 WP MM 04:00:00 NR 19.80 122.20 156 156 __________O___ -1 19.80 122.20 4 11 297
1887 WP MM 06:00:00 NR 19.96 121.87 175 170 __________P___ -1 19.96 121.87 4 10 295
1887 WP MM 09:00:00 NR 20.16 121.40 186 179 __________P___ -1 20.16 121.40 4 9 294
1887 WP MM 12:00:00 NR 20.34 120.96 179 156 __________P___ -1 20.34 120.96 4 9 295
1887 WP MM 15:00:00 NR 20.53 120.54 157 146 __________P___ -1 20.53 120.54 4 9 296
1887 WP MM 16:00:00 NR 20.60 120.40 148 140 __________O___ -1 20.60 120.40 4 8 302
1887 WP MM 18:00:00 NR 20.75 120.17 143 130 __________P___ -1 20.75 120.17 4 8 306
1887 WP MM 21:00:00 NR 20.98 119.83 137 136 __________P___ -1 20.98 119.83 4 8 307
1887 WP MM 1887-09-11 00:00:00 NR 21.24 119.46 146 150 __________P___ -1 21.24 119.46 4 9 304
1887 WP MM 03:00:00 NR 21.51 118.99 174 174 __________P___ -1 21.51 118.99 4 11 300
1887 WP MM 04:00:00 NR 21.60 118.80 184 184 __________O___ -1 21.60 118.80 4 14 298
1887 WP MM 06:00:00 NR 21.83 118.34 220 129 __________P___ -1 21.83 118.34 4 16 296
1887 WP MM 09:00:00 NR 22.18 117.54 129 45 __________P___ -1 22.18 117.54 4 17 293
1887 WP MM 12:00:00 NR 22.50 116.64 45 0 __________P___ -1 22.50 116.64 4 18 289
1887 WP MM 15:00:00 NR 22.74 115.71 10 0 __________P___ -1 22.74 115.71 4 18 285
1887 WP MM 16:00:00 NR 22.80 115.40 0 0 __________O___ -1 22.80 115.40 4 17 278
1887 WP MM 18:00:00 NR 22.86 114.77 0 0 __________P___ -1 22.86 114.77 4 17 273
1887 WP MM 21:00:00 NR 22.87 113.82 0 0 __________P___ -1 22.87 113.82 4 17 268
1887 WP MM 1887-09-12 00:00:00 NR 22.79 112.92 0 0 __________P___ -1 22.79 112.92 4 16 262
1887 WP MM 03:00:00 NR 22.65 112.13 0 0 __________P___ -1 22.65 112.13 4 14 258
1887 WP MM 04:00:00 NR 22.60 111.90 0 0 __________O___ -1 22.60 111.90 4 12 255
1887 WP MM 06:00:00 NR 22.51 111.52 0 0 __________P___ -1 22.51 111.52 4 10 251
1887 WP MM 09:00:00 NR 22.33 111.06 0 0 __________P___ -1 22.33 111.06 4 8 243
1887 WP MM 12:00:00 NR 22.12 110.71 0 0 __________P___ -1 22.12 110.71 4 8 234
1887 WP MM 15:00:00 NR 21.88 110.40 0 0 __________P___ -1 21.88 110.40 4 7 230
1887 WP MM 16:00:00 NR 21.80 110.30 0 0 __________O___ -1 21.80 110.30 4 8 228
1887 WP MM 18:00:00 NR 21.63 110.09 0 0 __________P___ -1 21.63 110.09 4 8 228
1887 WP MM 21:00:00 NR 21.36 109.78 10 0 __________P___ -1 21.36 109.78 4 8 228
1887 WP MM 1887-09-13 00:00:00 NR 21.08 109.45 31 31 __________P___ -1 21.08 109.45 4 8 228
1887 WP MM 03:00:00 NR 20.80 109.11 62 62 __________P___ -1 20.80 109.11 4 8 228
1887 WP MM 04:00:00 NR 20.70 109.00 73 __________O___ -1 20.70 109.00 7 9 228